Time;durP1;ratioP1;P1;durP2;ratioP2;P2;SDS_P1;SDS_P2;PMS_P1;PMS_P2;Temp;Humidity;BMP_temperature;BMP_pressure;BME280_temperature;BME280_humidity;BME280_pressure;Samples;Min_cycle;Max_cycle;Signal;HPM_P1;HPM_P2
2021/12/26 00:00:20;;;;;;;4.53;1.87;;;;;;;-145.67;100.00;66521.78;4998035;28;20042;-71
2021/12/26 00:02:48;;;;;;;3.70;1.80;;;;;;;-145.67;100.00;66521.78;5000013;28;20320;-72
2021/12/26 00:05:16;;;;;;;2.80;1.70;;;;;;;-145.67;100.00;66521.78;4994163;28;20040;-73
2021/12/26 00:07:42;;;;;;;3.90;1.63;;;;;;;-145.67;100.00;66521.78;4993187;28;20038;-72
2021/12/26 00:10:12;;;;;;;3.73;2.00;;;;;;;-145.67;100.00;66521.78;4994105;28;20096;-72
2021/12/26 00:12:38;;;;;;;5.73;1.93;;;;;;;-145.67;100.00;66521.78;4993620;28;20030;-72
2021/12/26 00:15:04;;;;;;;6.07;1.97;;;;;;;-145.67;100.00;66521.78;4993703;28;20523;-71
2021/12/26 00:17:33;;;;;;;5.03;1.60;;;;;;;-145.67;100.00;66521.78;4997700;28;20042;-71
2021/12/26 00:19:58;;;;;;;4.90;1.83;;;;;;;-145.67;100.00;66521.78;4992894;28;20116;-72
2021/12/26 00:22:26;;;;;;;3.57;1.80;;;;;;;-145.67;100.00;66521.78;4992177;28;20060;-72
2021/12/26 00:24:52;;;;;;;3.90;2.00;;;;;;;-145.67;100.00;66521.78;4993127;28;20565;-72
2021/12/26 00:27:19;;;;;;;4.23;1.70;;;;;;;-145.67;100.00;66521.78;4993409;28;20037;-73
2021/12/26 00:29:46;;;;;;;5.60;2.00;;;;;;;-145.67;100.00;66521.78;4993372;28;20045;-73
2021/12/26 00:32:14;;;;;;;3.47;1.80;;;;;;;-145.67;100.00;66521.78;4992238;28;20038;-71
2021/12/26 00:34:40;;;;;;;6.07;2.20;;;;;;;-145.67;100.00;66521.78;4993176;28;21930;-72
2021/12/26 00:37:08;;;;;;;4.43;1.80;;;;;;;-145.67;100.00;66521.78;4982933;28;20148;-73
2021/12/26 00:39:34;;;;;;;2.83;1.67;;;;;;;-145.67;100.00;66521.78;5007960;28;20054;-73
2021/12/26 00:42:00;;;;;;;3.47;2.17;;;;;;;-145.67;100.00;66521.78;4992726;28;20045;-72
2021/12/26 00:44:32;;;;;;;4.83;1.80;;;;;;;-145.67;100.00;66521.78;5008514;28;20049;-71
2021/12/26 00:46:57;;;;;;;5.50;1.70;;;;;;;-145.67;100.00;66521.78;4993178;28;20544;-73
2021/12/26 00:49:23;;;;;;;3.60;1.93;;;;;;;-145.67;100.00;66521.78;4992028;28;20121;-71
2021/12/26 00:51:50;;;;;;;4.87;1.90;;;;;;;-145.67;100.00;66521.78;4996333;28;20144;-72
2021/12/26 00:54:20;;;;;;;3.83;1.70;;;;;;;-145.67;100.00;66521.78;5000228;28;20776;-72
2021/12/26 00:56:45;;;;;;;3.57;1.70;;;;;;;-145.67;100.00;66521.78;5011333;28;20172;-72
2021/12/26 00:59:13;;;;;;;6.17;1.70;;;;;;;-145.67;100.00;66521.78;5000561;28;21856;-72
2021/12/26 01:01:39;;;;;;;3.33;1.70;;;;;;;-145.67;100.00;66521.78;4996690;28;20080;-72
2021/12/26 01:04:11;;;;;;;4.30;1.70;;;;;;;-145.67;100.00;66521.78;4996880;28;20045;-72
2021/12/26 01:06:37;;;;;;;4.47;2.17;;;;;;;-145.67;100.00;66521.78;4996657;28;20048;-72
2021/12/26 01:09:09;;;;;;;4.37;1.80;;;;;;;-145.67;100.00;66521.78;4996413;28;20037;-72
2021/12/26 01:11:41;;;;;;;4.17;1.80;;;;;;;-145.67;100.00;66521.78;5010818;28;20080;-71
2021/12/26 01:14:11;;;;;;;2.40;1.52;;;;;;;-145.67;100.00;66521.78;5010616;28;20489;-71
2021/12/26 01:16:38;;;;;;;4.77;1.93;;;;;;;-145.67;100.00;66521.78;4996780;28;20037;-71
2021/12/26 01:19:14;;;;;;;4.53;1.90;;;;;;;-145.67;100.00;66521.78;5010413;28;20544;-71
2021/12/26 01:21:42;;;;;;;4.00;1.60;;;;;;;-145.67;100.00;66521.78;4996370;28;20508;-73
2021/12/26 01:24:12;;;;;;;5.43;1.97;;;;;;;-145.67;100.00;66521.78;4995990;28;20482;-73
2021/12/26 01:26:38;;;;;;;4.40;1.93;;;;;;;-145.67;100.00;66521.78;4996240;28;20051;-71
2021/12/26 01:29:07;;;;;;;5.20;1.90;;;;;;;-145.67;100.00;66521.78;4995804;28;20410;-72
2021/12/26 01:31:40;;;;;;;4.13;1.80;;;;;;;-145.67;100.00;66521.78;4995141;28;20045;-71
2021/12/26 01:34:07;;;;;;;3.93;1.90;;;;;;;-145.67;100.00;66521.78;4995720;28;21942;-71
2021/12/26 01:36:36;;;;;;;4.80;2.00;;;;;;;-145.67;100.00;66521.78;5000753;28;20073;-71
2021/12/26 01:39:08;;;;;;;3.97;2.30;;;;;;;-145.67;100.00;66521.78;4996150;28;20038;-73
2021/12/26 01:41:38;;;;;;;;;;;;;;;-145.67;100.00;66521.78;5010130;28;20037;-71
2021/12/26 01:44:11;;;;;;;4.35;1.90;;;;;;;-145.67;100.00;66521.78;5005764;28;19932;-71
2021/12/26 01:46:40;;;;;;;4.27;1.43;;;;;;;-145.67;100.00;66521.78;4995994;28;20096;-71
2021/12/26 01:49:09;;;;;;;4.10;2.10;;;;;;;-145.67;100.00;66521.78;4999065;28;20541;-71
2021/12/26 01:51:34;;;;;;;5.70;1.80;;;;;;;-145.67;100.00;66521.78;4994227;28;20587;-73
2021/12/26 01:54:06;;;;;;;3.17;1.80;;;;;;;-145.67;100.00;66521.78;5005309;28;20553;-71
2021/12/26 01:56:34;;;;;;;3.45;1.77;;;;;;;-145.67;100.00;66521.78;4999429;28;20443;-73
2021/12/26 01:59:06;;;;;;;4.60;1.93;;;;;;;-145.67;100.00;66521.78;5002058;28;20038;-74
2021/12/26 02:01:34;;;;;;;2.53;1.40;;;;;;;-145.67;100.00;66521.78;4994804;28;20041;-71
2021/12/26 02:04:00;;;;;;;3.83;1.80;;;;;;;-145.67;100.00;66521.78;5004483;28;20505;-72
2021/12/26 02:06:28;;;;;;;4.53;1.73;;;;;;;-145.67;100.00;66521.78;5000437;28;20079;-72
2021/12/26 02:08:54;;;;;;;3.77;1.80;;;;;;;-145.67;100.00;66521.78;4995516;28;20484;-71
2021/12/26 02:11:19;;;;;;;4.17;1.90;;;;;;;-145.67;100.00;66521.78;4995460;28;20026;-72
2021/12/26 02:13:45;;;;;;;5.07;1.90;;;;;;;-145.67;100.00;66521.78;5010062;28;20096;-72
2021/12/26 02:16:11;;;;;;;5.17;1.90;;;;;;;-145.67;100.00;66521.78;4995970;28;20129;-72
2021/12/26 02:18:38;;;;;;;5.27;2.10;;;;;;;-145.67;100.00;66521.78;4994638;28;20099;-72
2021/12/26 02:21:27;;;;;;;4.67;2.00;;;;;;;-145.67;100.00;66521.78;4995378;28;20034;-73
2021/12/26 02:24:05;;;;;;;4.13;1.90;;;;;;;-145.67;100.00;66521.78;4995384;28;20034;-70
2021/12/26 02:29:19;;;;;;;3.37;1.90;;;;;;;-145.67;100.00;66521.78;4995000;28;20112;-71
2021/12/26 02:31:45;;;;;;;4.47;1.87;;;;;;;-145.67;100.00;66521.78;4993968;28;20057;-73
2021/12/26 02:34:13;;;;;;;3.67;1.90;;;;;;;-145.67;100.00;66521.78;4994661;28;20517;-73
2021/12/26 02:36:38;;;;;;;4.67;2.00;;;;;;;-145.67;100.00;66521.78;4995470;28;20038;-73
2021/12/26 02:39:04;;;;;;;4.17;2.27;;;;;;;-145.67;100.00;66521.78;4993220;28;20071;-73
2021/12/26 02:41:32;;;;;;;3.60;2.00;;;;;;;-145.67;100.00;66521.78;4994865;28;20049;-72
2021/12/26 02:44:00;;;;;;;5.27;2.03;;;;;;;-145.67;100.00;66521.78;4995146;28;20034;-72
2021/12/26 02:46:26;;;;;;;5.80;2.13;;;;;;;-145.67;100.00;66521.78;4994824;28;20478;-73
2021/12/26 02:48:54;;;;;;;5.33;2.60;;;;;;;-145.67;100.00;66521.78;5008979;28;20049;-73
2021/12/26 02:51:22;;;;;;;4.30;2.20;;;;;;;-145.67;100.00;66521.78;5009818;28;20469;-72
2021/12/26 02:53:50;;;;;;;5.60;2.03;;;;;;;-145.67;100.00;66521.78;5009334;28;20041;-72
2021/12/26 02:56:16;;;;;;;4.87;2.37;;;;;;;-145.67;100.00;66521.78;5003647;28;20034;-71
2021/12/26 02:58:42;;;;;;;5.20;2.53;;;;;;;-145.67;100.00;66521.78;5001096;28;20033;-73
2021/12/26 03:01:29;;;;;;;7.43;2.63;;;;;;;-145.67;100.00;66521.78;5009315;28;20679;-73
2021/12/26 03:04:04;;;;;;;6.90;2.83;;;;;;;-145.67;100.00;66521.78;4992747;28;20030;-72
2021/12/26 03:06:37;;;;;;;5.30;2.47;;;;;;;-145.67;100.00;66521.78;4993104;28;20111;-73
2021/12/26 03:09:04;;;;;;;4.27;2.30;;;;;;;-145.67;100.00;66521.78;5008246;28;20032;-73
2021/12/26 03:11:29;;;;;;;4.83;2.50;;;;;;;-145.67;100.00;66521.78;4994334;28;20127;-71
2021/12/26 03:13:55;;;;;;;6.73;2.30;;;;;;;-145.67;100.00;66521.78;5009050;28;20103;-71
2021/12/26 03:16:22;;;;;;;6.23;2.17;;;;;;;-145.67;100.00;66521.78;4992951;28;20036;-71
2021/12/26 03:18:48;;;;;;;5.43;2.37;;;;;;;-145.67;100.00;66521.78;4991897;28;20072;-71
2021/12/26 03:21:14;;;;;;;4.97;2.30;;;;;;;-145.67;100.00;66521.78;5009111;28;20042;-71
2021/12/26 03:23:41;;;;;;;6.57;2.43;;;;;;;-145.67;100.00;66521.78;4994349;28;20108;-72
2021/12/26 03:26:10;;;;;;;6.73;2.30;;;;;;;-145.67;100.00;66521.78;4994591;28;20240;-72
2021/12/26 03:28:40;;;;;;;5.83;2.23;;;;;;;-145.67;100.00;66521.78;4993879;28;20056;-71
2021/12/26 03:31:06;;;;;;;7.10;2.90;;;;;;;-145.67;100.00;66521.78;4999761;28;20040;-72
2021/12/26 03:33:31;;;;;;;4.03;1.90;;;;;;;-145.67;100.00;66521.78;5008213;28;20274;-71
2021/12/26 03:35:59;;;;;;;5.50;2.23;;;;;;;-145.67;100.00;66521.78;5008624;28;20061;-72
2021/12/26 03:38:26;;;;;;;3.87;2.10;;;;;;;-145.67;100.00;66521.78;4992587;28;20148;-71
2021/12/26 03:40:53;;;;;;;4.87;1.90;;;;;;;-145.67;100.00;66521.78;4999867;28;20184;-72
2021/12/26 03:43:19;;;;;;;5.00;2.07;;;;;;;-145.67;100.00;66521.78;5000136;28;20041;-71
2021/12/26 03:45:51;;;;;;;4.43;2.00;;;;;;;-145.67;100.00;66521.78;5003402;28;20030;-71
2021/12/26 03:48:21;;;;;;;3.88;2.13;;;;;;;-145.67;100.00;66521.78;5008040;28;20124;-73
2021/12/26 03:50:47;;;;;;;7.27;2.20;;;;;;;-145.67;100.00;66521.78;4993501;28;20049;-71
2021/12/26 03:53:13;;;;;;;3.50;1.90;;;;;;;-145.67;100.00;66521.78;4994272;28;20473;-71
2021/12/26 03:55:39;;;;;;;3.33;2.00;;;;;;;-145.67;100.00;66521.78;4993836;28;20041;-71
2021/12/26 03:58:05;;;;;;;4.10;2.33;;;;;;;-145.67;100.00;66521.78;4994128;28;21974;-71
2021/12/26 04:00:31;;;;;;;3.53;2.13;;;;;;;-145.67;100.00;66521.78;5008497;28;20034;-71
2021/12/26 04:02:57;;;;;;;5.87;2.40;;;;;;;-145.67;100.00;66521.78;4991954;28;20156;-71
2021/12/26 04:05:25;;;;;;;4.93;2.00;;;;;;;-145.67;100.00;66521.78;5003226;28;20022;-71
2021/12/26 04:07:51;;;;;;;4.10;2.40;;;;;;;-145.67;100.00;66521.78;4993751;28;20034;-71
2021/12/26 04:10:18;;;;;;;3.30;2.10;;;;;;;-145.67;100.00;66521.78;4993822;28;20549;-72
2021/12/26 04:12:47;;;;;;;4.87;1.90;;;;;;;-145.67;100.00;66521.78;4992534;28;20045;-71
2021/12/26 04:15:17;;;;;;;4.23;2.30;;;;;;;-145.67;100.00;66521.78;5007992;28;20037;-70
2021/12/26 04:17:45;;;;;;;4.10;2.20;;;;;;;-145.67;100.00;66521.78;4998872;28;20048;-71
2021/12/26 04:20:14;;;;;;;5.20;2.30;;;;;;;-145.67;100.00;66521.78;5002230;28;20036;-72
2021/12/26 04:22:40;;;;;;;5.03;2.27;;;;;;;-145.67;100.00;66521.78;4994067;28;20331;-73
2021/12/26 04:25:06;;;;;;;5.50;2.10;;;;;;;-145.67;100.00;66521.78;4993912;28;20030;-72
2021/12/26 04:27:31;;;;;;;5.80;2.40;;;;;;;-145.67;100.00;66521.78;5012678;28;20408;-72
2021/12/26 04:29:57;;;;;;;3.47;2.07;;;;;;;-145.67;100.00;66521.78;5005772;28;20046;-72
2021/12/26 04:32:25;;;;;;;5.33;2.37;;;;;;;-145.67;100.00;66521.78;4997487;28;20044;-72
2021/12/26 04:34:50;;;;;;;5.80;2.30;;;;;;;-145.67;100.00;66521.78;4996729;28;20454;-72
2021/12/26 04:37:18;;;;;;;4.70;2.33;;;;;;;-145.67;100.00;66521.78;5012271;28;20273;-73
2021/12/26 04:39:43;;;;;;;4.17;2.40;;;;;;;-145.67;100.00;66521.78;4997065;28;20055;-72
2021/12/26 04:42:09;;;;;;;5.50;2.50;;;;;;;-145.67;100.00;66521.78;4997262;28;20099;-73
2021/12/26 04:44:35;;;;;;;5.10;2.60;;;;;;;-145.67;100.00;66521.78;4996920;28;20779;-72
2021/12/26 04:47:00;;;;;;;6.53;2.40;;;;;;;-145.67;100.00;66521.78;4996777;28;20057;-72
2021/12/26 04:49:29;;;;;;;5.30;2.50;;;;;;;-145.67;100.00;66521.78;4995992;28;20709;-72
2021/12/26 04:51:54;;;;;;;5.13;3.07;;;;;;;-145.67;100.00;66521.78;4997214;28;20033;-72
2021/12/26 04:54:19;;;;;;;4.13;2.53;;;;;;;-145.67;100.00;66521.78;5006159;28;20026;-72
2021/12/26 04:56:45;;;;;;;6.30;2.73;;;;;;;-145.67;100.00;66521.78;4997173;28;22280;-72
2021/12/26 04:59:12;;;;;;;6.23;2.67;;;;;;;-145.67;100.00;66521.78;4997261;28;20132;-72
2021/12/26 05:01:39;;;;;;;6.30;2.40;;;;;;;-145.67;100.00;66521.78;4996632;28;20104;-72
2021/12/26 05:04:05;;;;;;;5.07;2.30;;;;;;;-145.67;100.00;66521.78;4994643;28;20096;-72
2021/12/26 05:06:33;;;;;;;5.13;2.43;;;;;;;-145.67;100.00;66521.78;4996453;28;20037;-72
2021/12/26 05:09:03;;;;;;;3.53;1.90;;;;;;;-145.67;100.00;66521.78;4997108;28;20111;-72
2021/12/26 05:11:29;;;;;;;4.63;2.07;;;;;;;-145.67;100.00;66521.78;4978642;28;20041;-72
2021/12/26 05:13:54;;;;;;;3.40;2.07;;;;;;;-145.67;100.00;66521.78;5000261;28;20393;-72
2021/12/26 05:16:22;;;;;;;4.70;1.93;;;;;;;-145.67;100.00;66521.78;4996072;28;20478;-72
2021/12/26 05:18:50;;;;;;;4.97;2.50;;;;;;;-145.67;100.00;66521.78;4995925;28;20037;-73
2021/12/26 05:21:18;;;;;;;3.70;2.10;;;;;;;-145.67;100.00;66521.78;4996176;28;20133;-72
2021/12/26 05:23:46;;;;;;;4.67;2.40;;;;;;;-145.67;100.00;66521.78;4996249;28;20068;-72
2021/12/26 05:26:11;;;;;;;4.70;2.30;;;;;;;-145.67;100.00;66521.78;4996855;28;21835;-73
2021/12/26 05:28:39;;;;;;;3.93;2.07;;;;;;;-145.67;100.00;66521.78;4995988;28;20135;-72
2021/12/26 05:31:07;;;;;;;4.20;1.93;;;;;;;-145.67;100.00;66521.78;4995942;28;20076;-72
2021/12/26 05:33:35;;;;;;;5.23;2.30;;;;;;;-145.67;100.00;66521.78;4995346;28;20119;-72
2021/12/26 05:36:05;;;;;;;5.33;2.60;;;;;;;-145.67;100.00;66521.78;4996173;28;20033;-72
2021/12/26 05:38:35;;;;;;;4.53;2.37;;;;;;;-145.67;100.00;66521.78;4996268;28;20041;-72
2021/12/26 05:41:06;;;;;;;4.47;2.40;;;;;;;-145.67;100.00;66521.78;4996437;28;20087;-72
2021/12/26 05:43:32;;;;;;;4.27;2.20;;;;;;;-145.67;100.00;66521.78;4996044;28;20041;-72
2021/12/26 05:46:00;;;;;;;4.93;2.40;;;;;;;-145.67;100.00;66521.78;4995855;28;20034;-72
2021/12/26 05:48:25;;;;;;;5.27;2.33;;;;;;;-145.67;100.00;66521.78;4977560;28;20057;-71
2021/12/26 05:50:52;;;;;;;4.20;2.30;;;;;;;-145.67;100.00;66521.78;4996143;28;20140;-71
2021/12/26 05:53:18;;;;;;;3.90;2.23;;;;;;;-145.67;100.00;66521.78;4995698;28;20638;-71
2021/12/26 05:55:46;;;;;;;5.10;2.40;;;;;;;-145.67;100.00;66521.78;5002759;28;20520;-71
2021/12/26 05:58:12;;;;;;;6.23;2.50;;;;;;;-145.67;100.00;66521.78;4996612;28;20041;-72
2021/12/26 06:00:37;;;;;;;5.57;2.50;;;;;;;-145.67;100.00;66521.78;4996783;28;20030;-72
2021/12/26 06:03:05;;;;;;;5.07;2.43;;;;;;;-145.67;100.00;66521.78;4995437;28;20681;-72
2021/12/26 06:05:33;;;;;;;6.50;2.83;;;;;;;-145.67;100.00;66521.78;4996056;28;20572;-71
2021/12/26 06:07:58;;;;;;;5.40;2.70;;;;;;;-145.67;100.00;66521.78;4995385;28;20213;-72
2021/12/26 06:10:26;;;;;;;7.27;3.23;;;;;;;-145.67;100.00;66521.78;4999269;28;20033;-72
2021/12/26 06:12:52;;;;;;;5.97;2.60;;;;;;;-145.67;100.00;66521.78;4996019;28;20127;-72
2021/12/26 06:15:18;;;;;;;5.50;2.70;;;;;;;-145.67;100.00;66521.78;5001271;28;20034;-72
2021/12/26 06:17:44;;;;;;;5.40;2.80;;;;;;;-145.67;100.00;66521.78;4995752;28;20153;-72
2021/12/26 06:20:14;;;;;;;6.27;3.00;;;;;;;-145.67;100.00;66521.78;4995180;28;20033;-71
2021/12/26 06:22:45;;;;;;;4.50;2.87;;;;;;;-145.67;100.00;66521.78;4995102;28;20564;-72
2021/12/26 06:25:12;;;;;;;6.73;2.67;;;;;;;-145.67;100.00;66521.78;4995684;28;20026;-71
2021/12/26 06:27:40;;;;;;;6.43;2.83;;;;;;;-145.67;100.00;66521.78;4998982;28;20040;-71
2021/12/26 06:30:06;;;;;;;6.73;2.87;;;;;;;-145.67;100.00;66521.78;4994881;28;20049;-71
2021/12/26 06:32:32;;;;;;;6.33;2.77;;;;;;;-145.67;100.00;66521.78;5009820;28;20045;-71
2021/12/26 06:34:58;;;;;;;5.37;2.60;;;;;;;-145.67;100.00;66521.78;5000974;28;20038;-71
2021/12/26 06:37:23;;;;;;;6.23;3.07;;;;;;;-145.67;100.00;66521.78;4993608;28;20470;-70
2021/12/26 06:39:49;;;;;;;5.93;2.70;;;;;;;-145.67;100.00;66521.78;4995759;28;20041;-70
2021/12/26 06:42:17;;;;;;;6.33;2.90;;;;;;;-145.67;100.00;66521.78;4994860;28;20068;-70
2021/12/26 06:44:43;;;;;;;7.03;3.27;;;;;;;-145.67;100.00;66521.78;4994479;28;20064;-71
2021/12/26 06:47:08;;;;;;;6.43;2.97;;;;;;;-145.67;100.00;66521.78;4994919;28;20401;-71
2021/12/26 06:49:34;;;;;;;4.87;2.60;;;;;;;-145.67;100.00;66521.78;4992204;28;20124;-71
2021/12/26 06:51:59;;;;;;;4.60;2.70;;;;;;;-145.67;100.00;66521.78;4994894;28;20040;-71
2021/12/26 06:54:25;;;;;;;5.47;2.87;;;;;;;-145.67;100.00;66521.78;4992798;28;20059;-71
2021/12/26 06:56:51;;;;;;;5.73;2.40;;;;;;;-145.67;100.00;66521.78;4989931;28;20033;-71
2021/12/26 06:59:18;;;;;;;5.50;2.83;;;;;;;-145.67;100.00;66521.78;5000152;28;20273;-71
2021/12/26 07:01:47;;;;;;;6.00;2.63;;;;;;;-145.67;100.00;66521.78;5009017;28;20053;-71
2021/12/26 07:04:12;;;;;;;4.43;2.37;;;;;;;-145.67;100.00;66521.78;5001191;28;20720;-71
2021/12/26 07:06:38;;;;;;;6.10;2.90;;;;;;;-145.67;100.00;66521.78;4995125;28;20293;-71
2021/12/26 07:09:06;;;;;;;5.87;3.00;;;;;;;-145.67;100.00;66521.78;4994359;28;20025;-71
2021/12/26 07:11:31;;;;;;;6.33;2.83;;;;;;;-145.67;100.00;66521.78;4994528;28;20037;-71
2021/12/26 07:13:59;;;;;;;4.60;2.40;;;;;;;-145.67;100.00;66521.78;4994373;28;20041;-71
2021/12/26 07:16:25;;;;;;;8.03;3.17;;;;;;;-145.67;100.00;66521.78;4993546;28;20284;-74
2021/12/26 07:18:53;;;;;;;6.10;3.17;;;;;;;-145.67;100.00;66521.78;4992401;28;20789;-69
2021/12/26 07:21:19;;;;;;;4.27;2.80;;;;;;;-145.67;100.00;66521.78;4994587;28;20044;-68
2021/12/26 07:23:44;;;;;;;7.27;2.67;;;;;;;-145.67;100.00;66521.78;4994851;28;20037;-69
2021/12/26 07:26:10;;;;;;;4.97;2.80;;;;;;;-145.67;100.00;66521.78;4995352;28;20358;-69
2021/12/26 07:28:35;;;;;;;5.13;2.80;;;;;;;-145.67;100.00;66521.78;4995053;28;20036;-69
2021/12/26 07:31:01;;;;;;;5.37;2.93;;;;;;;-145.67;100.00;66521.78;4993102;28;20053;-69
2021/12/26 07:33:27;;;;;;;6.53;2.93;;;;;;;-145.67;100.00;66521.78;4993474;28;20398;-70
2021/12/26 07:35:54;;;;;;;6.93;2.77;;;;;;;-145.67;100.00;66521.78;4995367;28;20095;-71
2021/12/26 07:38:24;;;;;;;4.83;3.00;;;;;;;-145.67;100.00;66521.78;4994772;28;22071;-72
2021/12/26 07:40:50;;;;;;;6.20;2.70;;;;;;;-145.67;100.00;66521.78;4995284;28;20041;-69
2021/12/26 07:43:16;;;;;;;6.07;3.03;;;;;;;-145.67;100.00;66521.78;4994344;28;20301;-70
2021/12/26 07:45:44;;;;;;;5.80;3.20;;;;;;;-145.67;100.00;66521.78;4994865;28;20433;-68
2021/12/26 07:48:10;;;;;;;5.07;2.93;;;;;;;-145.67;100.00;66521.78;4994411;28;20045;-70
2021/12/26 07:50:35;;;;;;;9.97;3.30;;;;;;;-145.67;100.00;66521.78;4994353;28;20060;-69
2021/12/26 07:53:07;;;;;;;6.70;2.93;;;;;;;-145.67;100.00;66521.78;4994095;28;20030;-71
2021/12/26 07:55:32;;;;;;;5.47;2.88;;;;;;;-145.67;100.00;66521.78;4994978;28;21915;-71
2021/12/26 07:57:58;;;;;;;7.47;3.20;;;;;;;-145.67;100.00;66521.78;5000413;28;20489;-71
2021/12/26 08:00:24;;;;;;;5.73;3.00;;;;;;;-145.67;100.00;66521.78;5003011;28;22116;-71
2021/12/26 08:02:51;;;;;;;6.20;3.60;;;;;;;-145.67;100.00;66521.78;4994690;28;20288;-69
2021/12/26 08:05:17;;;;;;;4.37;2.60;;;;;;;-145.67;100.00;66521.78;5008374;28;20030;-69
2021/12/26 08:07:43;;;;;;;4.97;2.90;;;;;;;-145.67;100.00;66521.78;5009903;28;20049;-69
2021/12/26 08:10:09;;;;;;;7.50;3.23;;;;;;;-145.67;100.00;66521.78;4992909;28;20304;-69
2021/12/26 08:12:34;;;;;;;5.37;3.30;;;;;;;-145.67;100.00;66521.78;5008437;28;20029;-69
2021/12/26 08:15:01;;;;;;;10.83;3.30;;;;;;;-145.67;100.00;66521.78;5008305;28;20036;-69
2021/12/26 08:17:28;;;;;;;7.23;3.57;;;;;;;-145.67;100.00;66521.78;4993990;28;20525;-70
2021/12/26 08:19:54;;;;;;;5.90;3.00;;;;;;;-145.67;100.00;66521.78;5008160;28;20038;-68
2021/12/26 08:22:19;;;;;;;5.77;3.23;;;;;;;-145.67;100.00;66521.78;4997529;28;20131;-69
2021/12/26 08:24:47;;;;;;;5.37;3.27;;;;;;;-145.67;100.00;66521.78;4994923;28;20040;-69
2021/12/26 08:27:13;;;;;;;7.40;3.40;;;;;;;-145.67;100.00;66521.78;4993737;28;20037;-70
2021/12/26 08:29:41;;;;;;;6.40;3.30;;;;;;;-145.67;100.00;66521.78;4992281;28;20496;-71
2021/12/26 08:32:11;;;;;;;5.10;3.20;;;;;;;-145.67;100.00;66521.78;4994691;28;20042;-70
2021/12/26 08:34:37;;;;;;;6.53;3.33;;;;;;;-145.67;100.00;66521.78;4991530;28;20541;-69
2021/12/26 08:37:03;;;;;;;5.83;3.53;;;;;;;-145.67;100.00;66521.78;4992031;28;20029;-71
2021/12/26 08:39:31;;;;;;;5.97;3.37;;;;;;;-145.67;100.00;66521.78;4998185;28;20026;-71
2021/12/26 08:41:57;;;;;;;6.90;3.50;;;;;;;-145.67;100.00;66521.78;4994336;28;21930;-71
2021/12/26 08:44:23;;;;;;;5.60;3.53;;;;;;;-145.67;100.00;66521.78;4994270;28;20036;-72
2021/12/26 08:46:49;;;;;;;6.10;3.40;;;;;;;-145.67;100.00;66521.78;4992737;28;20089;-71
2021/12/26 08:49:15;;;;;;;4.93;3.07;;;;;;;-145.67;100.00;66521.78;4992927;28;20123;-72
2021/12/26 08:51:41;;;;;;;6.43;3.77;;;;;;;-145.67;100.00;66521.78;4999851;28;20109;-70
2021/12/26 08:54:07;;;;;;;5.73;3.37;;;;;;;-145.67;100.00;66521.78;5008352;28;20068;-70
2021/12/26 08:56:33;;;;;;;5.13;3.20;;;;;;;-145.67;100.00;66521.78;4992023;28;20558;-70
2021/12/26 08:58:58;;;;;;;6.00;3.40;;;;;;;-145.67;100.00;66521.78;4993594;28;20087;-70
2021/12/26 09:01:24;;;;;;;6.70;3.50;;;;;;;-145.67;100.00;66521.78;4993634;28;20040;-70
2021/12/26 09:03:49;;;;;;;5.63;3.20;;;;;;;-145.67;100.00;66521.78;4993392;28;20188;-70
2021/12/26 09:06:17;;;;;;;5.43;3.40;;;;;;;-145.67;100.00;66521.78;4997550;28;20018;-70
2021/12/26 09:08:45;;;;;;;6.47;3.40;;;;;;;-145.67;100.00;66521.78;4991721;28;20139;-71
2021/12/26 09:11:10;;;;;;;6.33;3.33;;;;;;;-145.67;100.00;66521.78;4994513;28;20173;-69
2021/12/26 09:13:36;;;;;;;6.10;3.57;;;;;;;-145.67;100.00;66521.78;4994289;28;20041;-71
2021/12/26 09:16:02;;;;;;;5.93;3.47;;;;;;;-145.67;100.00;66521.78;4995467;28;20428;-72
2021/12/26 09:18:28;;;;;;;7.50;3.93;;;;;;;-145.67;100.00;66521.78;4996652;28;20091;-70
2021/12/26 09:20:54;;;;;;;6.33;3.43;;;;;;;-145.67;100.00;66521.78;4996789;28;20025;-70
2021/12/26 09:23:19;;;;;;;6.47;3.40;;;;;;;-145.67;100.00;66521.78;4997074;28;20060;-72
2021/12/26 09:25:47;;;;;;;5.13;3.00;;;;;;;-145.67;100.00;66521.78;4997364;28;20220;-70
2021/12/26 09:28:12;;;;;;;5.27;3.47;;;;;;;-145.67;100.00;66521.78;4997226;28;20677;-71
2021/12/26 09:30:41;;;;;;;6.40;3.33;;;;;;;-145.67;100.00;66521.78;5005914;28;20049;-71
2021/12/26 09:33:07;;;;;;;5.67;3.50;;;;;;;-145.67;100.00;66521.78;5000987;28;20132;-71
2021/12/26 09:35:35;;;;;;;5.40;3.53;;;;;;;-145.67;100.00;66521.78;5000314;28;20461;-71
2021/12/26 09:38:05;;;;;;;5.40;3.50;;;;;;;-145.67;100.00;66521.78;4996527;28;20125;-69
2021/12/26 09:40:31;;;;;;;6.17;3.43;;;;;;;-145.67;100.00;66521.78;4996677;28;20483;-71
2021/12/26 09:42:59;;;;;;;5.47;3.10;;;;;;;-145.67;100.00;66521.78;4996389;28;20037;-70
2021/12/26 09:45:25;;;;;;;6.37;3.10;;;;;;;-145.67;100.00;66521.78;4995342;28;20345;-69
2021/12/26 09:47:50;;;;;;;5.30;3.43;;;;;;;-145.67;100.00;66521.78;4996658;28;20029;-71
2021/12/26 09:50:18;;;;;;;6.33;3.50;;;;;;;-145.67;100.00;66521.78;4995605;28;20033;-72
2021/12/26 09:52:46;;;;;;;5.80;3.53;;;;;;;-145.67;100.00;66521.78;5010639;28;20199;-71
2021/12/26 09:55:12;;;;;;;7.53;3.93;;;;;;;-145.67;100.00;66521.78;4995033;28;20029;-72
2021/12/26 09:57:38;;;;;;;6.07;3.60;;;;;;;-145.67;100.00;66521.78;4996129;28;20029;-72
2021/12/26 10:00:19;;;;;;;7.00;3.70;;;;;;;-145.67;100.00;66521.78;5002397;28;20660;-71
2021/12/26 10:02:49;;;;;;;5.90;3.60;;;;;;;-145.67;100.00;66521.78;4996298;28;20112;-72
2021/12/26 10:05:14;;;;;;;7.80;4.10;;;;;;;-145.67;100.00;66521.78;4996040;28;20512;-71
2021/12/26 10:07:39;;;;;;;6.53;3.40;;;;;;;-145.67;100.00;66521.78;4995684;28;20038;-70
2021/12/26 10:10:06;;;;;;;5.47;3.63;;;;;;;-145.67;100.00;66521.78;4994924;28;20128;-70
2021/12/26 10:12:41;;;;;;;7.93;3.80;;;;;;;-145.67;100.00;66521.78;4996172;28;20493;-70
2021/12/26 10:15:07;;;;;;;6.20;3.63;;;;;;;-145.67;100.00;66521.78;5000767;28;20494;-72
2021/12/26 10:17:35;;;;;;;5.07;3.60;;;;;;;-145.67;100.00;66521.78;4996554;28;20094;-70
2021/12/26 10:20:07;;;;;;;7.43;3.77;;;;;;;-145.67;100.00;66521.78;4994620;28;20033;-71
2021/12/26 10:22:33;;;;;;;6.82;3.30;;;;;;;-145.67;100.00;66521.78;4984943;28;21811;-71
2021/12/26 10:24:59;;;;;;;6.07;3.93;;;;;;;-145.67;100.00;66521.78;4995203;28;20266;-70
2021/12/26 10:27:30;;;;;;;7.57;4.17;;;;;;;-145.67;100.00;66521.78;4995273;28;20037;-70
2021/12/26 10:29:58;;;;;;;5.70;3.55;;;;;;;-145.67;100.00;66521.78;5010612;28;20164;-70
2021/12/26 10:32:24;;;;;;;6.80;3.73;;;;;;;-145.67;100.00;66521.78;4994036;28;20565;-72
2021/12/26 10:34:54;;;;;;;6.73;3.73;;;;;;;-145.67;100.00;66521.78;4983926;28;20045;-72
2021/12/26 10:37:23;;;;;;;7.57;4.33;;;;;;;-145.67;100.00;66521.78;4994715;28;20048;-71
2021/12/26 10:39:52;;;;;;;8.17;4.40;;;;;;;-145.67;100.00;66521.78;4995654;28;20041;-72
2021/12/26 10:42:30;;;;;;;5.87;3.83;;;;;;;-145.67;100.00;66521.78;5009992;28;20096;-71
2021/12/26 10:44:57;;;;;;;8.43;4.10;;;;;;;-145.67;100.00;66521.78;4995103;28;20033;-71
2021/12/26 10:47:33;;;;;;;6.33;4.10;;;;;;;-145.67;100.00;66521.78;4999987;28;20351;-72
2021/12/26 10:50:06;;;;;;;7.27;4.27;;;;;;;-145.67;100.00;66521.78;4987771;28;20056;-72
2021/12/26 10:52:39;;;;;;;8.10;4.23;;;;;;;-145.67;100.00;66521.78;4994526;28;20064;-72
2021/12/26 10:55:27;;;;;;;5.90;3.80;;;;;;;-145.67;100.00;66521.78;4994997;28;21964;-72
2021/12/26 10:57:53;;;;;;;8.67;4.73;;;;;;;-145.67;100.00;66521.78;5000705;28;20045;-72
2021/12/26 11:00:48;;;;;;;7.70;4.33;;;;;;;-145.67;100.00;66521.78;5009771;28;20486;-72
2021/12/26 11:03:28;;;;;;;7.23;4.30;;;;;;;-145.67;100.00;66521.78;4994464;28;20044;-72
2021/12/26 11:05:55;;;;;;;9.60;4.43;;;;;;;-145.67;100.00;66521.78;4998100;28;20037;-72
2021/12/26 11:08:29;;;;;;;8.30;4.50;;;;;;;-145.67;100.00;66521.78;4998778;28;20100;-70
2021/12/26 11:10:55;;;;;;;6.93;4.20;;;;;;;-145.67;100.00;66521.78;5000397;28;20048;-71
2021/12/26 11:13:28;;;;;;;10.00;4.83;;;;;;;-145.67;100.00;66521.78;4998557;28;20237;-70